createdAt,value
2022-08-14T00:02:21.787Z,11.70
2022-08-14T00:04:55.133Z,12.10
2022-08-14T00:07:26.433Z,11.50
2022-08-14T00:10:49.803Z,12.70
2022-08-14T00:12:56.483Z,11.90
2022-08-14T00:15:30.042Z,12.20
2022-08-14T00:18:30.756Z,11.60
2022-08-14T00:21:11.180Z,10.80
2022-08-14T00:23:42.205Z,12.00
2022-08-14T00:26:22.085Z,12.30
2022-08-14T00:28:54.775Z,13.00
2022-08-14T00:31:35.053Z,11.80
2022-08-14T00:34:36.031Z,12.30
2022-08-14T00:37:06.146Z,11.00
2022-08-14T00:39:38.362Z,12.00
2022-08-14T00:42:21.210Z,12.30
2022-08-14T00:44:59.761Z,11.80
2022-08-14T00:47:31.439Z,11.90
2022-08-14T00:50:17.496Z,11.60
2022-08-14T00:52:50.848Z,11.40
2022-08-14T00:55:21.950Z,11.30
2022-08-14T00:58:07.820Z,12.70
2022-08-14T01:00:51.373Z,11.90
2022-08-14T01:03:30.723Z,11.20
2022-08-14T01:06:01.464Z,11.30
2022-08-14T01:08:57.414Z,11.90
2022-08-14T01:11:35.633Z,12.30
2022-08-14T01:14:25.284Z,10.60
2022-08-14T01:16:57.711Z,11.90
2022-08-14T01:20:00.493Z,11.60
2022-08-14T01:22:31.131Z,11.50
2022-08-14T01:25:02.679Z,12.80
2022-08-14T01:27:36.721Z,11.40
2022-08-14T01:30:26.574Z,12.40
2022-08-14T01:32:56.900Z,12.90
2022-08-14T01:36:03.910Z,11.80
2022-08-14T01:38:19.048Z,13.80
2022-08-14T01:40:53.238Z,12.80
2022-08-14T01:43:30.599Z,12.90
2022-08-14T01:46:24.412Z,12.90
2022-08-14T01:48:57.474Z,13.30
2022-08-14T01:51:30.476Z,12.30
2022-08-14T01:54:02.017Z,12.50
2022-08-14T01:56:39.130Z,14.20
2022-08-14T01:59:18.085Z,13.80
2022-08-14T02:01:51.206Z,14.10
2022-08-14T02:04:55.996Z,13.00
2022-08-14T02:07:44.706Z,14.10
2022-08-14T02:10:15.601Z,13.30
2022-08-14T02:12:56.887Z,13.00
2022-08-14T02:15:27.895Z,13.50
2022-08-14T02:18:01.914Z,14.70
2022-08-14T02:20:34.169Z,13.50
2022-08-14T02:23:06.551Z,14.40
2022-08-14T02:25:39.448Z,14.50
2022-08-14T02:28:22.971Z,14.30
2022-08-14T02:31:02.090Z,14.60
2022-08-14T02:33:33.900Z,15.40
2022-08-14T02:37:03.421Z,14.80
2022-08-14T02:39:01.539Z,13.30
2022-08-14T02:41:36.751Z,14.40
2022-08-14T02:44:11.340Z,14.70
2022-08-14T02:46:44.865Z,13.10
2022-08-14T02:49:34.148Z,13.30
2022-08-14T02:52:55.451Z,12.90
2022-08-14T02:54:58.276Z,13.70
2022-08-14T02:57:40.387Z,13.30
2022-08-14T03:00:18.551Z,13.00
2022-08-14T03:02:59.089Z,14.10
2022-08-14T03:05:36.266Z,13.40
2022-08-14T03:08:08.839Z,14.70
2022-08-14T03:10:41.974Z,13.10
2022-08-14T03:13:21.476Z,13.20
2022-08-14T03:15:56.213Z,14.10
2022-08-14T03:18:31.772Z,13.50
2022-08-14T03:21:05.586Z,14.30
2022-08-14T03:23:38.660Z,14.60
2022-08-14T03:26:13.191Z,14.60
2022-08-14T03:28:49.878Z,14.80
2022-08-14T03:31:25.986Z,14.40
2022-08-14T03:34:00.113Z,13.30
2022-08-14T03:37:39.494Z,14.10
2022-08-14T03:39:24.223Z,15.20
2022-08-14T03:42:01.513Z,13.90
2022-08-14T03:45:26.801Z,14.20
2022-08-14T03:47:33.666Z,15.10
2022-08-14T03:50:30.766Z,15.10
2022-08-14T03:53:03.682Z,14.70
2022-08-14T03:55:34.000Z,14.20
2022-08-14T03:58:04.815Z,13.70
2022-08-14T04:00:44.244Z,14.40
2022-08-14T04:03:23.497Z,15.10
2022-08-14T04:05:55.264Z,15.60
2022-08-14T04:08:30.847Z,13.30
2022-08-14T04:11:08.005Z,14.00
2022-08-14T04:13:42.321Z,14.20
2022-08-14T04:16:13.425Z,13.90
2022-08-14T04:18:45.619Z,13.70
2022-08-14T04:21:16.976Z,13.70
2022-08-14T04:23:57.007Z,15.00
2022-08-14T04:26:42.200Z,13.90
2022-08-14T04:29:16.064Z,13.90
2022-08-14T04:33:02.925Z,14.40
2022-08-14T04:34:42.164Z,14.40
2022-08-14T04:37:30.251Z,15.50
2022-08-14T04:40:18.806Z,15.30
2022-08-14T04:43:06.564Z,15.10
2022-08-14T04:45:41.071Z,13.20
2022-08-14T04:48:39.746Z,14.50
2022-08-14T04:51:06.832Z,13.20
2022-08-14T04:53:42.943Z,14.90
2022-08-14T04:56:30.847Z,14.40
2022-08-14T04:59:10.614Z,13.20
2022-08-14T05:01:48.714Z,14.50
2022-08-14T05:04:21.389Z,14.80
2022-08-14T05:06:54.990Z,13.90
2022-08-14T05:09:29.305Z,13.30
2022-08-14T05:13:14.319Z,13.70
2022-08-14T05:14:55.517Z,13.00
2022-08-14T05:17:31.958Z,13.20
2022-08-14T05:33:33.697Z,12.70
2022-08-14T05:36:06.877Z,13.10
2022-08-14T05:38:48.364Z,12.10
2022-08-14T05:41:19.868Z,12.90
2022-08-14T05:43:52.802Z,12.00
2022-08-14T05:46:23.331Z,12.50
2022-08-14T05:48:55.317Z,11.90
2022-08-14T05:51:30.615Z,13.80
2022-08-14T05:54:11.419Z,12.90
2022-08-14T05:59:14.302Z,11.50
2022-08-14T06:01:47.341Z,11.80
2022-08-14T06:04:21.707Z,11.90
2022-08-14T06:06:52.234Z,11.00
2022-08-14T06:09:23.817Z,11.20
2022-08-14T06:11:54.132Z,11.00
2022-08-14T06:14:24.994Z,10.90
2022-08-14T06:16:57.014Z,12.10
2022-08-14T06:19:28.231Z,13.00
2022-08-14T06:22:00.166Z,11.30
2022-08-14T06:24:34.886Z,11.30
2022-08-14T06:27:10.018Z,10.90
2022-08-14T06:29:41.588Z,10.70
2022-08-14T06:32:37.807Z,10.00
2022-08-14T06:35:12.278Z,10.50
2022-08-14T06:37:47.033Z,9.20
2022-08-14T06:40:26.707Z,9.30
2022-08-14T06:43:03.355Z,8.10
2022-08-14T06:45:35.006Z,8.50
2022-08-14T06:48:14.467Z,7.80
2022-08-14T06:50:48.092Z,4.90
2022-08-14T06:53:20.092Z,4.80
2022-08-14T06:55:58.299Z,5.40
2022-08-14T06:58:32.642Z,7.80
2022-08-14T07:01:27.765Z,7.40
2022-08-14T07:04:22.455Z,7.50
2022-08-14T07:06:54.755Z,7.10
2022-08-14T07:09:43.840Z,7.60
2022-08-14T07:12:54.283Z,7.70
2022-08-14T07:15:11.067Z,7.20
2022-08-14T07:17:52.265Z,6.20
2022-08-14T07:20:30.906Z,6.30
2022-08-14T07:23:08.671Z,6.30
2022-08-14T07:25:43.793Z,5.40
2022-08-14T07:28:20.153Z,5.50
2022-08-14T07:30:51.916Z,5.80
2022-08-14T07:33:29.349Z,4.80
2022-08-14T07:36:03.373Z,5.90
2022-08-14T07:38:53.249Z,5.50
2022-08-14T07:41:23.671Z,5.80
2022-08-14T07:43:55.746Z,5.10
2022-08-14T07:46:28.532Z,4.90
2022-08-14T07:49:00.400Z,5.90
2022-08-14T07:51:34.205Z,5.30
2022-08-14T07:54:11.195Z,5.30
2022-08-14T07:56:47.582Z,5.70
2022-08-14T07:59:40.575Z,5.30
2022-08-14T08:02:17.302Z,5.30
2022-08-14T08:04:54.503Z,5.80
2022-08-14T08:07:29.851Z,5.40
2022-08-14T08:10:46.837Z,5.70
2022-08-14T08:13:17.487Z,6.30
2022-08-14T08:15:49.288Z,5.40
2022-08-14T08:18:20.583Z,4.90
2022-08-14T08:21:00.705Z,5.10
2022-08-14T08:23:40.752Z,5.10
2022-08-14T08:26:21.174Z,5.50
2022-08-14T08:28:58.097Z,6.00
2022-08-14T08:31:33.067Z,5.70
2022-08-14T08:34:07.563Z,6.10
2022-08-14T08:36:46.789Z,5.40
2022-08-14T08:39:21.981Z,6.10
2022-08-14T08:41:53.977Z,5.90
2022-08-14T08:44:33.018Z,6.30
2022-08-14T08:47:08.057Z,6.30
2022-08-14T08:49:59.307Z,6.20
2022-08-14T08:52:31.233Z,5.60
2022-08-14T08:55:04.436Z,5.60
2022-08-14T08:57:38.007Z,5.70
2022-08-14T09:00:24.312Z,5.70
2022-08-14T09:02:57.514Z,5.30
2022-08-14T09:05:29.003Z,5.90
2022-08-14T09:08:26.694Z,5.60
2022-08-14T09:11:02.503Z,5.20
2022-08-14T09:13:49.818Z,5.20
2022-08-14T09:16:23.677Z,5.60
2022-08-14T09:18:56.184Z,5.50
2022-08-14T09:21:31.101Z,5.40
2022-08-14T09:24:28.368Z,5.20
2022-08-14T09:26:53.274Z,5.10
2022-08-14T09:29:23.947Z,5.30
2022-08-14T09:32:01.767Z,5.40
2022-08-14T09:34:40.193Z,5.20
2022-08-14T09:37:36.120Z,4.90
2022-08-14T09:40:20.594Z,4.80
2022-08-14T09:42:56.033Z,5.70
2022-08-14T09:45:40.063Z,5.30
2022-08-14T09:48:29.966Z,5.70
2022-08-14T09:54:19.207Z,4.90
2022-08-14T09:56:57.118Z,5.50
2022-08-14T09:59:40.673Z,6.20
2022-08-14T10:02:27.850Z,6.80
2022-08-14T10:05:02.617Z,7.00
2022-08-14T10:07:35.198Z,6.00
2022-08-14T10:10:23.170Z,5.80
2022-08-14T10:12:58.401Z,5.60
2022-08-14T10:15:30.416Z,6.20
2022-08-14T10:18:09.552Z,5.80
2022-08-14T10:20:55.932Z,6.30
2022-08-14T10:23:30.049Z,6.20
2022-08-14T10:26:08.267Z,6.20
2022-08-14T10:29:18.273Z,6.10
2022-08-14T10:31:44.714Z,5.30
2022-08-14T10:34:25.955Z,5.50
2022-08-14T10:37:14.887Z,4.40
2022-08-14T10:40:05.298Z,4.20
2022-08-14T10:42:41.623Z,5.20
2022-08-14T10:45:21.951Z,4.50
2022-08-14T10:48:09.657Z,4.60
2022-08-14T10:50:50.509Z,4.20
2022-08-14T10:53:32.967Z,4.60
2022-08-14T10:56:07.129Z,4.80
2022-08-14T10:59:01.631Z,4.20
2022-08-14T11:01:40.848Z,4.20
2022-08-14T11:04:25.368Z,4.00
2022-08-14T11:06:57.879Z,3.80
2022-08-14T11:09:32.146Z,3.50
2022-08-14T11:12:34.224Z,3.90
2022-08-14T11:14:59.097Z,3.80
2022-08-14T11:17:33.388Z,3.70
2022-08-14T11:20:05.955Z,3.60
2022-08-14T11:22:52.967Z,3.50
2022-08-14T11:25:36.874Z,3.60
2022-08-14T11:28:19.393Z,3.40
2022-08-14T11:30:54.172Z,3.50
2022-08-14T11:33:26.286Z,3.10
2022-08-14T11:36:00.759Z,3.20
2022-08-14T11:38:37.993Z,3.30
2022-08-14T11:41:09.373Z,3.20
2022-08-14T11:43:49.461Z,3.30
2022-08-14T11:46:30.539Z,3.70
2022-08-14T11:49:10.813Z,3.70
2022-08-14T11:51:54.419Z,3.90
2022-08-14T11:54:34.511Z,3.20
2022-08-14T11:57:06.544Z,3.50
2022-08-14T11:59:38.544Z,3.60
2022-08-14T12:02:39.019Z,3.00
2022-08-14T12:05:09.318Z,3.40
2022-08-14T12:07:50.403Z,3.00
2022-08-14T12:10:25.488Z,3.30
2022-08-14T12:12:58.287Z,3.20
2022-08-14T12:15:32.789Z,3.20
2022-08-14T12:18:04.650Z,3.00
2022-08-14T12:20:37.697Z,3.10
2022-08-14T12:23:23.727Z,3.20
2022-08-14T12:26:12.151Z,3.00
2022-08-14T12:29:05.849Z,2.70
2022-08-14T12:31:44.472Z,2.90
2022-08-14T12:34:20.438Z,3.40
2022-08-14T12:37:02.624Z,2.60
2022-08-14T12:39:39.626Z,2.60
2022-08-14T12:42:11.998Z,3.00
2022-08-14T12:45:04.102Z,2.50
2022-08-14T12:47:35.278Z,2.80
2022-08-14T12:50:06.350Z,2.10
2022-08-14T12:52:47.326Z,2.60
2022-08-14T12:58:29.649Z,2.50
2022-08-14T13:01:16.791Z,2.70
2022-08-14T13:03:51.770Z,2.40
2022-08-14T13:06:27.646Z,2.50
2022-08-14T13:09:00.017Z,2.30
2022-08-14T13:11:41.113Z,2.90
2022-08-14T13:14:17.339Z,2.80
2022-08-14T13:16:50.227Z,3.50
2022-08-14T13:19:24.331Z,4.60
2022-08-14T13:22:04.884Z,4.80
2022-08-14T13:24:39.437Z,5.20
2022-08-14T13:27:11.189Z,5.40
2022-08-14T13:29:46.542Z,6.40
2022-08-14T13:32:18.892Z,5.10
2022-08-14T13:34:52.779Z,5.60
2022-08-14T13:37:24.195Z,5.40
2022-08-14T13:39:56.636Z,6.00
2022-08-14T13:42:30.563Z,5.70
2022-08-14T13:45:02.941Z,5.30
2022-08-14T13:47:35.239Z,5.60
2022-08-14T13:50:08.335Z,5.50
2022-08-14T13:52:52.614Z,5.60
2022-08-14T13:55:28.559Z,5.40
2022-08-14T13:58:03.994Z,5.60
2022-08-14T14:00:51.819Z,5.80
2022-08-14T14:03:30.387Z,6.00
2022-08-14T14:06:03.826Z,5.50
2022-08-14T14:08:47.564Z,5.00
2022-08-14T14:11:21.209Z,5.00
2022-08-14T14:13:51.957Z,6.00
2022-08-14T14:16:30.088Z,5.30
2022-08-14T14:19:10.450Z,5.80
2022-08-14T14:21:42.068Z,5.10
2022-08-14T14:24:15.273Z,5.30
2022-08-14T14:26:50.128Z,5.80
2022-08-14T14:29:24.221Z,5.60
2022-08-14T14:31:58.745Z,5.80
2022-08-14T14:34:34.738Z,6.00
2022-08-14T14:37:06.973Z,5.70
2022-08-14T14:40:53.927Z,6.50
2022-08-14T14:42:32.227Z,5.90
2022-08-14T14:45:07.824Z,5.70
2022-08-14T14:47:39.262Z,6.20
2022-08-14T14:50:11.414Z,5.90
2022-08-14T14:52:42.509Z,6.70
2022-08-14T14:55:16.814Z,6.80
2022-08-14T14:57:52.022Z,5.90
2022-08-14T15:00:25.535Z,7.70
2022-08-14T15:03:01.560Z,6.10
2022-08-14T15:05:33.141Z,6.20
2022-08-14T15:08:04.012Z,5.50
2022-08-14T15:10:39.982Z,6.00
2022-08-14T15:13:11.175Z,7.00
2022-08-14T15:15:43.464Z,7.30
2022-08-14T15:18:36.320Z,6.50
2022-08-14T15:21:04.351Z,6.50
2022-08-14T15:23:44.008Z,6.20
2022-08-14T15:26:24.070Z,6.40
2022-08-14T15:29:05.632Z,7.10
2022-08-14T15:31:37.521Z,7.00
2022-08-14T15:34:43.194Z,7.00
2022-08-14T15:37:03.612Z,7.00
2022-08-14T15:39:35.725Z,6.90
2022-08-14T15:42:16.220Z,6.80
2022-08-14T15:44:58.048Z,7.50
2022-08-14T15:47:33.119Z,7.60
2022-08-14T15:50:08.745Z,7.80
2022-08-14T15:52:44.747Z,8.00
2022-08-14T15:55:16.411Z,7.40
2022-08-14T15:58:02.581Z,8.00
2022-08-14T16:00:54.658Z,8.50
2022-08-14T16:03:34.557Z,7.80
2022-08-14T16:06:11.182Z,7.70
2022-08-14T16:08:46.540Z,8.10
2022-08-14T16:11:20.555Z,8.70
2022-08-14T16:13:57.649Z,8.90
2022-08-14T16:16:48.142Z,9.00
2022-08-14T16:19:23.695Z,8.20
2022-08-14T16:22:01.426Z,8.50
2022-08-14T16:25:00.134Z,8.40
2022-08-14T16:27:37.910Z,8.30
2022-08-14T16:30:25.025Z,8.50
2022-08-14T16:32:59.301Z,8.90
2022-08-14T16:35:41.894Z,8.80
2022-08-14T16:38:45.716Z,7.80
2022-08-14T16:41:23.224Z,8.50
2022-08-14T16:43:59.210Z,8.80
2022-08-14T16:46:32.877Z,8.90
2022-08-14T16:49:05.473Z,9.20
2022-08-14T16:51:39.820Z,9.60
2022-08-14T16:54:33.980Z,9.10
2022-08-14T16:57:16.374Z,9.80
2022-08-14T16:59:52.836Z,9.40
2022-08-14T17:02:36.288Z,10.00
2022-08-14T17:05:24.000Z,9.80
2022-08-14T17:08:32.613Z,10.40
2022-08-14T17:11:09.865Z,10.30
2022-08-14T17:13:57.760Z,9.70
2022-08-14T17:16:37.148Z,10.00
2022-08-14T17:19:13.804Z,10.90
2022-08-14T17:21:47.449Z,10.40
2022-08-14T17:24:56.885Z,10.60
2022-08-14T17:27:10.911Z,10.70
2022-08-14T17:29:58.750Z,11.80
2022-08-14T17:32:56.782Z,11.90
2022-08-14T17:35:58.030Z,13.50
2022-08-14T17:38:38.513Z,11.80
2022-08-14T17:41:32.822Z,12.50
2022-08-14T17:44:20.153Z,11.60
2022-08-14T17:46:56.999Z,11.70
2022-08-14T17:49:31.977Z,12.90
2022-08-14T17:52:07.615Z,11.30
2022-08-14T17:54:52.945Z,11.40
2022-08-14T17:57:40.658Z,12.90
2022-08-14T18:00:14.834Z,11.80
2022-08-14T18:02:50.708Z,12.60
2022-08-14T18:06:08.448Z,11.80
2022-08-14T18:08:32.886Z,12.10
2022-08-14T18:11:07.413Z,13.70
2022-08-14T18:13:50.794Z,12.40
2022-08-14T18:16:22.949Z,11.60
2022-08-14T18:18:53.698Z,11.50
2022-08-14T18:21:56.881Z,18.50
2022-08-14T18:24:28.736Z,12.30
2022-08-14T18:27:09.451Z,12.70
2022-08-14T18:29:54.758Z,11.30
2022-08-14T18:32:47.262Z,12.70
2022-08-14T18:35:46.037Z,16.70
2022-08-14T18:38:25.805Z,12.70
2022-08-14T18:41:18.468Z,12.60
2022-08-14T18:43:59.109Z,12.20
2022-08-14T18:47:00.187Z,12.80
2022-08-14T18:49:21.488Z,14.40
2022-08-14T18:54:33.006Z,14.30
2022-08-14T18:57:05.840Z,13.40
2022-08-14T18:59:43.272Z,13.40
2022-08-14T19:02:42.371Z,13.10
2022-08-14T19:05:14.301Z,13.80
2022-08-14T19:07:48.407Z,15.20
2022-08-14T19:10:31.868Z,14.70
2022-08-14T19:13:11.825Z,16.50
2022-08-14T19:15:44.003Z,13.70
2022-08-14T19:18:32.531Z,14.40
2022-08-14T19:21:23.999Z,14.40
2022-08-14T19:24:27.114Z,16.00
2022-08-14T19:29:37.920Z,15.80
2022-08-14T19:32:24.068Z,15.50
2022-08-14T19:34:54.960Z,14.70
2022-08-14T19:37:52.288Z,14.20
2022-08-14T19:40:34.254Z,14.70
2022-08-14T19:43:09.100Z,14.90
2022-08-14T19:45:40.490Z,15.60
2022-08-14T19:48:15.861Z,15.10
2022-08-14T19:50:47.488Z,14.10
2022-08-14T19:53:18.479Z,13.90
2022-08-14T19:55:58.650Z,13.60
2022-08-14T19:58:55.212Z,13.80
2022-08-14T20:01:37.696Z,16.00
2022-08-14T20:04:44.850Z,15.10
2022-08-14T20:07:04.381Z,15.90
2022-08-14T20:11:04.011Z,14.50
2022-08-14T20:12:36.462Z,14.40
2022-08-14T20:15:27.902Z,13.40
2022-08-14T20:18:48.772Z,15.50
2022-08-14T20:21:17.000Z,16.70
2022-08-14T20:23:49.463Z,14.20
2022-08-14T20:26:31.308Z,14.70
2022-08-14T20:29:07.193Z,14.60
2022-08-14T20:31:39.898Z,14.60
2022-08-14T20:34:24.954Z,16.00
2022-08-14T20:37:09.880Z,15.90
2022-08-14T20:39:43.559Z,17.10
2022-08-14T20:42:35.119Z,15.10
2022-08-14T20:45:23.827Z,17.80
2022-08-14T20:47:58.571Z,16.20
2022-08-14T20:50:32.246Z,15.70
2022-08-14T20:53:05.637Z,15.50
2022-08-14T20:55:41.644Z,15.60
2022-08-14T20:58:42.176Z,14.90
2022-08-14T21:01:32.644Z,13.90
2022-08-14T21:04:12.078Z,13.70
2022-08-14T21:07:24.462Z,11.00
2022-08-14T21:10:05.060Z,12.70
2022-08-14T21:12:35.768Z,13.40
2022-08-14T21:15:10.176Z,11.80
2022-08-14T21:17:43.269Z,14.80
2022-08-14T21:20:26.547Z,13.80
2022-08-14T21:23:01.300Z,11.90
2022-08-14T21:25:32.558Z,12.20
2022-08-14T21:28:06.242Z,11.70
2022-08-14T21:30:50.972Z,11.70
2022-08-14T21:33:23.680Z,13.00
2022-08-14T21:35:55.569Z,11.30
2022-08-14T21:38:33.964Z,12.70
2022-08-14T21:41:42.371Z,12.40
2022-08-14T21:44:17.386Z,12.60
2022-08-14T21:46:53.333Z,12.10
2022-08-14T21:49:33.818Z,12.60
2022-08-14T21:52:51.764Z,11.50
2022-08-14T21:55:09.569Z,12.10
2022-08-14T21:58:38.394Z,11.80
2022-08-14T22:00:39.677Z,12.10
2022-08-14T22:03:17.341Z,10.00
2022-08-14T22:05:50.045Z,9.20
2022-08-14T22:08:26.615Z,9.80
2022-08-14T22:10:59.087Z,9.70
2022-08-14T22:13:32.540Z,9.40
2022-08-14T22:16:03.516Z,9.90
2022-08-14T22:18:34.417Z,9.90
2022-08-14T22:21:08.263Z,11.00
2022-08-14T22:23:47.453Z,11.10
2022-08-14T22:26:22.701Z,11.80
2022-08-14T22:29:01.321Z,11.50
2022-08-14T22:31:35.059Z,11.50
